Tatabanya, Hungary
Current Conditions -  °F | °C
As of 8:45 AM on Friday 31 Oct 2014 (Local Time) from LHPR Reporting Station
Moderate Fog Moderate Fog  
Wind Chill: 34°   Ceiling: 400
Heat Index: 34°   Visibility: 0.12mi
Dew Point: 34°   Wind: 3mph
Humidity: 100%   Direction: 260°W
Pressure: 30.36"   Gusts: NA
Location:  47.55°N, 18.44°E
Report Text: LHPR 310645Z 26003KT 0200 FG VV004 01/01 Q1028
Loading
Personal Weather Stations






























Interactive Weather Map
Tropical Storm Tracking
New forecast layout! Learn more

10-Day Weather Forecast

Advertisements
Track Severe Weather on mobile